Address 0xf35ceb23cca51106bbc33ed4c727eaeb507999b6

Overview

Balance:
6.211951180705197788 BNB

Token:
My Name Tag:
Not Available

Txn Hash Method
Block
From
To
Value [Txn Fee]
0xe6a690948053c83446c42e5ba75473282714fcae4b6c5e6be5c83b36da465eb7Transfer93687212021-06-02 3:08:39112 days 23 hrs ago0xf35ceb23cca51106bbc33ed4c727eaeb507999b6OUT 0x0c2f6be9e8135c2b8b4f4271e1d543c9b8d7433a0 BNB0.00051127
0x9beacba87bf43315d887ac6cfd1fafd3c1733e578770dc1459e697178dcd8877Set Completed93490162021-06-01 10:43:24113 days 15 hrs ago0xf35ceb23cca51106bbc33ed4c727eaeb507999b6OUT 0xbcff530a45a6c088105000a1504e77e65cabbfe20 BNB0.00027254
0x02b202dd9812cde88b8bdce9408a8bb28bea0313de6b60c14bf60e3bf1c2798e0x6080604093490102021-06-01 10:43:06113 days 15 hrs ago0xf35ceb23cca51106bbc33ed4c727eaeb507999b6OUT Contract Creation0 BNB0.03107669
0xa10f412666608b0ca5c8297fca085b706a913c770f45f5013a99744650d66cd2Set Completed93490072021-06-01 10:42:57113 days 15 hrs ago0xf35ceb23cca51106bbc33ed4c727eaeb507999b6OUT 0xbcff530a45a6c088105000a1504e77e65cabbfe20 BNB0.00042254
0x5be3e8db03eb8f75e80d1cbb2dabeb246583627900eed33bb04180753f3848220x6080604093490032021-06-01 10:42:45113 days 15 hrs ago0xf35ceb23cca51106bbc33ed4c727eaeb507999b6OUT Contract Creation0 BNB0.00137422
0xedcb551ef102fd4371f43d396c93cf9992f8df60fa350c922fc5551e523656c6Set93421352021-06-01 4:59:21113 days 21 hrs ago0xf35ceb23cca51106bbc33ed4c727eaeb507999b6OUT 0xee8568430e7af0e4b47f921109c5b4ff2d4a03040 BNB0.00030336
0x0c7ea0cd637be50f6605c3e1add31e28aff56ed12076e7beffbdd4b566727afdUpdate Pool93410432021-06-01 4:04:45113 days 22 hrs ago0xf35ceb23cca51106bbc33ed4c727eaeb507999b6OUT 0xee8568430e7af0e4b47f921109c5b4ff2d4a03040 BNB0.00076846
0x55f522ea575c280157881299e11bfe6149894b724d7581853ebf39aae1554f96Add93405712021-06-01 3:41:09113 days 22 hrs ago0xf35ceb23cca51106bbc33ed4c727eaeb507999b6OUT 0xee8568430e7af0e4b47f921109c5b4ff2d4a03040 BNB0.00174552
0x51d0475f29db3cb69cdf75ced2dc2ddcdf2ce7eb4f82689cc6d9cd48a20b83d5Add93405672021-06-01 3:40:57113 days 22 hrs ago0xf35ceb23cca51106bbc33ed4c727eaeb507999b6OUT 0xee8568430e7af0e4b47f921109c5b4ff2d4a03040 BNB0.00164096
0xd39d661fa58a036e03146a2bb73647492385f090f3b0584b3956403a2553fc9eAdd93405652021-06-01 3:40:51113 days 22 hrs ago0xf35ceb23cca51106bbc33ed4c727eaeb507999b6OUT 0xee8568430e7af0e4b47f921109c5b4ff2d4a03040 BNB0.0018364
0x43f4dbcdc0ca4178108c4c5f4a623a5222d1b0a99d47d69a03fc0e40153991feTransfer93241062021-05-31 13:57:54114 days 12 hrs ago0xf35ceb23cca51106bbc33ed4c727eaeb507999b6OUT 0x0c2f6be9e8135c2b8b4f4271e1d543c9b8d7433a0 BNB0.00051127
0x78eb92db5a52babf1de10a54451e58d7ae255b83ad3d3edad811f6ebc0ec4d7fTransfer93241022021-05-31 13:57:42114 days 12 hrs ago0xf35ceb23cca51106bbc33ed4c727eaeb507999b6OUT 0x0c2f6be9e8135c2b8b4f4271e1d543c9b8d7433a0 BNB0.00051115
0xc785f3ca2b598d40e75291163f6cb11a0bc5c827c62db68a784e7c47ad11980bSet Completed93215382021-05-31 11:49:30114 days 14 hrs ago0xf35ceb23cca51106bbc33ed4c727eaeb507999b6OUT 0xc0896e6dfb9ee9cd7d80c327aefb9192befea51d0 BNB0.00054676
0x2cb8ded2e55ae24daaa8bd68c2039eeb010cfb73c97debfbe5b8db09911c91580x6080604093215322021-05-31 11:49:12114 days 14 hrs ago0xf35ceb23cca51106bbc33ed4c727eaeb507999b6OUT Contract Creation0 BNB0.03644308
0xa60651b0c3e47b000b50d32aaf061e5205b30ad41c4dd884026b79d87b1890000x6080604093215252021-05-31 11:48:51114 days 14 hrs ago0xf35ceb23cca51106bbc33ed4c727eaeb507999b6OUT Contract Creation0 BNB0.01882578
0xe00afa4d4db10b9fd6002a9db153ad091a2381e1cf24ed5c4765af352e4bc4fdTransfer Ownersh...93215222021-05-31 11:48:42114 days 14 hrs ago0xf35ceb23cca51106bbc33ed4c727eaeb507999b6OUT 0x443c26e7f07eb754db96af58fdbee584a4653f9b0 BNB0.00061824
0x0676f3ea2c5a7a3fed466747c96fadf10dbcdedf2fd02a2ff4a3b0f67aed6f92Transfer Ownersh...93215192021-05-31 11:48:33114 days 14 hrs ago0xf35ceb23cca51106bbc33ed4c727eaeb507999b6OUT 0x0c2f6be9e8135c2b8b4f4271e1d543c9b8d7433a0 BNB0.00061824
0x5230253bc99630752c0e26d1ac40c9ee73efd51e6159cc87b4946f04711279b30x6080604093215142021-05-31 11:48:18114 days 14 hrs ago0xf35ceb23cca51106bbc33ed4c727eaeb507999b6OUT Contract Creation0 BNB0.04186204
0x42e4e7204fd8bf2d3339b73d0bf689650fac7abce17cae0c1b74c1c553014a100x6080604093215092021-05-31 11:48:03114 days 14 hrs ago0xf35ceb23cca51106bbc33ed4c727eaeb507999b6OUT Contract Creation0 BNB0.03813808
0x0644bcceddb72b868d563523129ee0978ffed4e548ba67343ddf78d007d21cb0Mint93215062021-05-31 11:47:54114 days 14 hrs ago0xf35ceb23cca51106bbc33ed4c727eaeb507999b6OUT 0x0c2f6be9e8135c2b8b4f4271e1d543c9b8d7433a0 BNB0.00132774
0x6184a3ab28e4baf69dfef9b868e0ced4dc10899444d5be248150e32c74fb767d0x6080604093215022021-05-31 11:47:42114 days 14 hrs ago0xf35ceb23cca51106bbc33ed4c727eaeb507999b6OUT Contract Creation0 BNB0.03332186
0xbc8de16f30d2f7bf1177a813204d6c567187e7f62a9148fb890775c0a1dffb16Set Completed93214992021-05-31 11:47:33114 days 14 hrs ago0xf35ceb23cca51106bbc33ed4c727eaeb507999b6OUT 0xc0896e6dfb9ee9cd7d80c327aefb9192befea51d0 BNB0.00084676
0xb199005b93db23901045e14c8c03fc64813d4e6fc1f6f3907eadcef617f0f2a60x6080604093214932021-05-31 11:47:15114 days 14 hrs ago0xf35ceb23cca51106bbc33ed4c727eaeb507999b6OUT Contract Creation0 BNB0.0031839
0xbc4d057136fe2067e0b4b49507171be869160581af8e066fe30d15c853e024220x296fd8a489125262021-05-17 5:38:05128 days 20 hrs ago0xf35ceb23cca51106bbc33ed4c727eaeb507999b6OUT 0xacda36b0347d3548f3e71e27e6b03ac0aa7e920f0.0124 BNB0.01781501
0xba8a06112b8153acb40d375ef99f4107d82e496d5e66428cbe3dbff43b5176db0x296fd8a489125182021-05-17 5:37:41128 days 20 hrs ago0xf35ceb23cca51106bbc33ed4c727eaeb507999b6OUT 0xacda36b0347d3548f3e71e27e6b03ac0aa7e920f0.0124 BNB0.01781633
[ Download CSV Export 
Latest 9 internal transactions
Parent Txn Hash Block From To Value
0x36fc9c360ec78b25e5848c44e9e71c07a5892d0e18607df1d4917e3fbda1f46379650952021-04-14 7:30:57161 days 18 hrs ago 0x1fe5f6451b22e48e15b1a4f22f3384a88f4ca4f90xf35ceb23cca51106bbc33ed4c727eaeb507999b61 wei
0x5b79b5ad2d78f96d7fb4fc8665902ed2a544fa22419bad38146bf3f4f0b1fca777878092021-04-08 3:46:39167 days 22 hrs ago 0x1fe5f6451b22e48e15b1a4f22f3384a88f4ca4f90xf35ceb23cca51106bbc33ed4c727eaeb507999b61 wei
0x0d53e00e4421474741cac39651c0725ff7edd0ce50aac81bfeca01294dd91ea177878002021-04-08 3:46:12167 days 22 hrs ago 0x1fe5f6451b22e48e15b1a4f22f3384a88f4ca4f90xf35ceb23cca51106bbc33ed4c727eaeb507999b60.855673049442697913 BNB
0x578137c07c6ecb7473579779d1006c1610a0c4995e6b0e1d1a60667e9d9cfd7377842852021-04-08 0:50:27168 days 1 hr ago 0x180223b04a1da0bb059a25a42d3354a726e45d1d0xf35ceb23cca51106bbc33ed4c727eaeb507999b60.999999999999999988 BNB
0x35a87266720de54caa1b1946e1461770e1faeb6a98cac8cd0033009a44f6764277842802021-04-08 0:50:12168 days 1 hr ago 0x180223b04a1da0bb059a25a42d3354a726e45d1d0xf35ceb23cca51106bbc33ed4c727eaeb507999b60.026143999999999948 BNB
0x7efe21425d57ee28f36dd9275cfce0afd67cdb251ae64bb1755e566803257f4477842022021-04-08 0:46:18168 days 1 hr ago 0xae13d989dac2f0debff460ac112a837c89baa7cd0xf35ceb23cca51106bbc33ed4c727eaeb507999b60.792561639112499973 BNB
0x2fdb8c9d87202216573f0d9e6cde1c92ae2bcf5c3d62cb2d5cbee0ff366be17e76223272021-04-02 9:49:06173 days 16 hrs ago 0x367dc8f92718ff38b12490d324bc3c23597449740xf35ceb23cca51106bbc33ed4c727eaeb507999b61 wei
0x7437938acf58c5dd7fe66d0d759cac23b7034fab0b891657cf50a51e1d60d86c76222952021-04-02 9:47:30173 days 16 hrs ago 0x367dc8f92718ff38b12490d324bc3c23597449740xf35ceb23cca51106bbc33ed4c727eaeb507999b62.051384820923899008 BNB
0x677d1293ba3b871355aed3b8eb62b9e5d457716d7a629f364a78c686e329403376222722021-04-02 9:46:21173 days 16 hrs ago 0x367dc8f92718ff38b12490d324bc3c23597449740xf35ceb23cca51106bbc33ed4c727eaeb507999b60.000411078567391192 BNB
[ Download CSV Export 
Loading

Contract Name:
0 BNB

Compiler Version
0

Optimization Enabled:
0 BNB

Other Settings:
-NA-
Block Transaction Gas Used Reward
Age Block Fee Address BC Fee Address Voting Power Jailed Incoming
Block Uncle Number Difficulty Gas Used Reward
Loading